sensor_id;sensor_type;location;lat;lon;timestamp;temperature;humidity
80412;SHT30;69749;42.684;23.360;2024-02-26T00:01:51;12.21;64.92
80412;SHT30;69749;42.684;23.360;2024-02-26T00:04:17;12.13;65.30
80412;SHT30;69749;42.684;23.360;2024-02-26T00:06:43;12.14;66.17
80412;SHT30;69749;42.684;23.360;2024-02-26T00:09:09;12.19;64.84
80412;SHT30;69749;42.684;23.360;2024-02-26T00:11:36;12.14;64.23
80412;SHT30;69749;42.684;23.360;2024-02-26T00:14:02;12.04;64.73
80412;SHT30;69749;42.684;23.360;2024-02-26T00:16:27;11.92;65.48
80412;SHT30;69749;42.684;23.360;2024-02-26T00:18:53;11.87;66.41
80412;SHT30;69749;42.684;23.360;2024-02-26T00:21:18;11.86;65.75
80412;SHT30;69749;42.684;23.360;2024-02-26T00:23:44;11.89;65.67
80412;SHT30;69749;42.684;23.360;2024-02-26T00:26:09;11.83;66.43
80412;SHT30;69749;42.684;23.360;2024-02-26T00:28:36;11.82;67.01
80412;SHT30;69749;42.684;23.360;2024-02-26T00:31:02;11.82;66.54
80412;SHT30;69749;42.684;23.360;2024-02-26T00:33:27;11.86;66.53
80412;SHT30;69749;42.684;23.360;2024-02-26T00:35:53;11.87;66.61
80412;SHT30;69749;42.684;23.360;2024-02-26T00:38:18;11.92;66.94
80412;SHT30;69749;42.684;23.360;2024-02-26T00:40:44;11.92;67.12
80412;SHT30;69749;42.684;23.360;2024-02-26T00:43:10;11.94;67.25
80412;SHT30;69749;42.684;23.360;2024-02-26T00:45:35;11.97;66.91
80412;SHT30;69749;42.684;23.360;2024-02-26T00:48:01;11.99;66.70
80412;SHT30;69749;42.684;23.360;2024-02-26T00:50:30;11.99;66.16
80412;SHT30;69749;42.684;23.360;2024-02-26T00:52:55;12.02;66.61
80412;SHT30;69749;42.684;23.360;2024-02-26T00:55:21;12.03;66.59
80412;SHT30;69749;42.684;23.360;2024-02-26T00:57:46;12.04;67.23
80412;SHT30;69749;42.684;23.360;2024-02-26T01:00:12;11.99;66.20
80412;SHT30;69749;42.684;23.360;2024-02-26T01:02:38;12.03;66.06
80412;SHT30;69749;42.684;23.360;2024-02-26T01:05:05;12.03;66.38
80412;SHT30;69749;42.684;23.360;2024-02-26T01:07:31;12.07;65.88
80412;SHT30;69749;42.684;23.360;2024-02-26T01:10:01;12.03;65.67
80412;SHT30;69749;42.684;23.360;2024-02-26T01:12:27;12.03;67.08
80412;SHT30;69749;42.684;23.360;2024-02-26T01:14:52;11.90;66.07
80412;SHT30;69749;42.684;23.360;2024-02-26T01:17:18;11.80;67.36
80412;SHT30;69749;42.684;23.360;2024-02-26T01:19:44;11.83;67.43
80412;SHT30;69749;42.684;23.360;2024-02-26T01:22:09;11.97;66.33
80412;SHT30;69749;42.684;23.360;2024-02-26T01:24:35;11.93;66.45
80412;SHT30;69749;42.684;23.360;2024-02-26T01:27:00;11.89;66.74
80412;SHT30;69749;42.684;23.360;2024-02-26T01:29:26;11.93;67.40
80412;SHT30;69749;42.684;23.360;2024-02-26T01:31:51;11.92;67.25
80412;SHT30;69749;42.684;23.360;2024-02-26T01:34:17;11.94;67.15
80412;SHT30;69749;42.684;23.360;2024-02-26T01:36:44;11.94;66.23
80412;SHT30;69749;42.684;23.360;2024-02-26T01:39:09;11.96;65.90
80412;SHT30;69749;42.684;23.360;2024-02-26T01:41:39;11.97;66.19
80412;SHT30;69749;42.684;23.360;2024-02-26T01:44:05;11.99;65.90
80412;SHT30;69749;42.684;23.360;2024-02-26T01:46:33;11.94;66.67
80412;SHT30;69749;42.684;23.360;2024-02-26T01:49:01;11.96;66.80
80412;SHT30;69749;42.684;23.360;2024-02-26T01:51:27;11.92;65.88
80412;SHT30;69749;42.684;23.360;2024-02-26T01:53:53;11.90;66.10
80412;SHT30;69749;42.684;23.360;2024-02-26T01:56:19;11.92;66.92
80412;SHT30;69749;42.684;23.360;2024-02-26T01:58:46;11.87;67.35
80412;SHT30;69749;42.684;23.360;2024-02-26T02:01:12;11.87;66.94
80412;SHT30;69749;42.684;23.360;2024-02-26T02:03:39;11.85;67.34
80412;SHT30;69749;42.684;23.360;2024-02-26T02:06:07;11.90;66.80
80412;SHT30;69749;42.684;23.360;2024-02-26T02:08:33;11.89;67.03
80412;SHT30;69749;42.684;23.360;2024-02-26T02:11:00;11.90;66.21
80412;SHT30;69749;42.684;23.360;2024-02-26T02:13:26;11.89;66.21
80412;SHT30;69749;42.684;23.360;2024-02-26T02:15:52;11.86;66.31
80412;SHT30;69749;42.684;23.360;2024-02-26T02:18:17;11.87;66.53
80412;SHT30;69749;42.684;23.360;2024-02-26T02:20:44;11.83;67.47
80412;SHT30;69749;42.684;23.360;2024-02-26T02:23:09;11.80;66.48
80412;SHT30;69749;42.684;23.360;2024-02-26T02:25:35;11.76;66.56
80412;SHT30;69749;42.684;23.360;2024-02-26T02:28:00;11.68;66.75
80412;SHT30;69749;42.684;23.360;2024-02-26T02:30:29;11.61;66.89
80412;SHT30;69749;42.684;23.360;2024-02-26T02:32:55;11.61;67.20
80412;SHT30;69749;42.684;23.360;2024-02-26T02:35:22;11.59;68.22
80412;SHT30;69749;42.684;23.360;2024-02-26T02:37:48;11.59;68.01
80412;SHT30;69749;42.684;23.360;2024-02-26T02:40:13;11.58;68.13
80412;SHT30;69749;42.684;23.360;2024-02-26T02:42:39;11.69;68.64
80412;SHT30;69749;42.684;23.360;2024-02-26T02:45:05;11.69;67.09
80412;SHT30;69749;42.684;23.360;2024-02-26T02:47:30;11.72;67.41
80412;SHT30;69749;42.684;23.360;2024-02-26T02:49:56;11.71;67.58
80412;SHT30;69749;42.684;23.360;2024-02-26T02:52:21;11.75;67.74
80412;SHT30;69749;42.684;23.360;2024-02-26T02:54:47;11.83;68.20
80412;SHT30;69749;42.684;23.360;2024-02-26T02:57:12;11.87;68.10
80412;SHT30;69749;42.684;23.360;2024-02-26T02:59:39;11.94;67.69
80412;SHT30;69749;42.684;23.360;2024-02-26T03:02:05;12.03;67.60
80412;SHT30;69749;42.684;23.360;2024-02-26T03:04:31;12.06;66.56
80412;SHT30;69749;42.684;23.360;2024-02-26T03:06:57;12.16;66.18
80412;SHT30;69749;42.684;23.360;2024-02-26T03:09:23;12.02;67.02
80412;SHT30;69749;42.684;23.360;2024-02-26T03:11:48;12.03;67.40
80412;SHT30;69749;42.684;23.360;2024-02-26T03:14:14;12.06;67.21
80412;SHT30;69749;42.684;23.360;2024-02-26T03:16:39;12.06;67.13
80412;SHT30;69749;42.684;23.360;2024-02-26T03:19:05;12.10;65.94
80412;SHT30;69749;42.684;23.360;2024-02-26T03:21:31;12.16;65.80
80412;SHT30;69749;42.684;23.360;2024-02-26T03:23:56;12.13;65.24
80412;SHT30;69749;42.684;23.360;2024-02-26T03:26:22;12.13;65.47
80412;SHT30;69749;42.684;23.360;2024-02-26T03:28:48;12.09;66.28
80412;SHT30;69749;42.684;23.360;2024-02-26T03:31:14;12.00;66.77
80412;SHT30;69749;42.684;23.360;2024-02-26T03:33:40;12.04;67.55
80412;SHT30;69749;42.684;23.360;2024-02-26T03:36:05;12.06;67.24
80412;SHT30;69749;42.684;23.360;2024-02-26T03:38:32;12.09;67.35
80412;SHT30;69749;42.684;23.360;2024-02-26T03:40:58;12.06;66.99
80412;SHT30;69749;42.684;23.360;2024-02-26T03:43:23;12.06;66.74
80412;SHT30;69749;42.684;23.360;2024-02-26T03:45:49;12.07;66.27
80412;SHT30;69749;42.684;23.360;2024-02-26T03:48:14;12.03;66.07
80412;SHT30;69749;42.684;23.360;2024-02-26T03:50:40;12.06;66.19
80412;SHT30;69749;42.684;23.360;2024-02-26T03:53:05;12.09;66.31
80412;SHT30;69749;42.684;23.360;2024-02-26T03:55:31;12.09;66.21
80412;SHT30;69749;42.684;23.360;2024-02-26T03:57:56;12.14;66.37
80412;SHT30;69749;42.684;23.360;2024-02-26T04:00:22;12.16;65.85
80412;SHT30;69749;42.684;23.360;2024-02-26T04:02:48;12.23;65.24
80412;SHT30;69749;42.684;23.360;2024-02-26T04:05:14;12.17;66.15
80412;SHT30;69749;42.684;23.360;2024-02-26T04:07:40;12.14;66.06
80412;SHT30;69749;42.684;23.360;2024-02-26T04:10:12;12.07;65.96
80412;SHT30;69749;42.684;23.360;2024-02-26T04:12:39;12.09;65.92
80412;SHT30;69749;42.684;23.360;2024-02-26T04:15:06;12.06;65.91
80412;SHT30;69749;42.684;23.360;2024-02-26T04:17:31;11.99;65.71
80412;SHT30;69749;42.684;23.360;2024-02-26T04:19:57;12.00;65.78
80412;SHT30;69749;42.684;23.360;2024-02-26T04:22:22;12.02;66.19
80412;SHT30;69749;42.684;23.360;2024-02-26T04:24:48;12.02;65.56
80412;SHT30;69749;42.684;23.360;2024-02-26T04:27:13;11.96;65.54
80412;SHT30;69749;42.684;23.360;2024-02-26T04:29:39;11.93;65.71
80412;SHT30;69749;42.684;23.360;2024-02-26T04:32:05;11.96;65.73
80412;SHT30;69749;42.684;23.360;2024-02-26T04:34:30;11.93;65.58
80412;SHT30;69749;42.684;23.360;2024-02-26T04:36:56;11.89;65.51
80412;SHT30;69749;42.684;23.360;2024-02-26T04:39:21;11.89;65.55
80412;SHT30;69749;42.684;23.360;2024-02-26T04:41:47;11.87;65.47
80412;SHT30;69749;42.684;23.360;2024-02-26T04:44:12;11.86;65.65
80412;SHT30;69749;42.684;23.360;2024-02-26T04:46:38;11.86;65.57
80412;SHT30;69749;42.684;23.360;2024-02-26T04:49:03;11.85;65.30
80412;SHT30;69749;42.684;23.360;2024-02-26T04:51:30;11.85;65.26
80412;SHT30;69749;42.684;23.360;2024-02-26T04:53:56;11.80;65.23
80412;SHT30;69749;42.684;23.360;2024-02-26T04:56:21;11.83;65.61
80412;SHT30;69749;42.684;23.360;2024-02-26T04:58:47;11.75;65.29
80412;SHT30;69749;42.684;23.360;2024-02-26T05:01:13;11.71;65.28
80412;SHT30;69749;42.684;23.360;2024-02-26T05:03:38;11.66;65.23
80412;SHT30;69749;42.684;23.360;2024-02-26T05:06:05;11.65;65.13
80412;SHT30;69749;42.684;23.360;2024-02-26T05:08:30;11.61;65.17
80412;SHT30;69749;42.684;23.360;2024-02-26T05:10:56;11.54;65.01
80412;SHT30;69749;42.684;23.360;2024-02-26T05:13:22;11.57;65.21
80412;SHT30;69749;42.684;23.360;2024-02-26T05:15:47;11.57;65.43
80412;SHT30;69749;42.684;23.360;2024-02-26T05:18:15;11.55;65.66
80412;SHT30;69749;42.684;23.360;2024-02-26T05:20:40;11.55;65.53
80412;SHT30;69749;42.684;23.360;2024-02-26T05:23:06;11.62;65.20
80412;SHT30;69749;42.684;23.360;2024-02-26T05:25:31;11.58;65.32
80412;SHT30;69749;42.684;23.360;2024-02-26T05:27:57;11.55;65.33
80412;SHT30;69749;42.684;23.360;2024-02-26T05:30:22;11.55;65.18
80412;SHT30;69749;42.684;23.360;2024-02-26T05:32:48;11.57;65.33
80412;SHT30;69749;42.684;23.360;2024-02-26T05:35:13;11.57;65.49
80412;SHT30;69749;42.684;23.360;2024-02-26T05:37:40;11.55;64.97
80412;SHT30;69749;42.684;23.360;2024-02-26T05:40:06;11.55;65.87
80412;SHT30;69749;42.684;23.360;2024-02-26T05:42:31;11.58;66.24
80412;SHT30;69749;42.684;23.360;2024-02-26T05:44:57;11.68;65.51
80412;SHT30;69749;42.684;23.360;2024-02-26T05:47:23;11.71;66.19
80412;SHT30;69749;42.684;23.360;2024-02-26T05:49:48;11.72;65.68
80412;SHT30;69749;42.684;23.360;2024-02-26T05:52:14;11.69;65.92
80412;SHT30;69749;42.684;23.360;2024-02-26T05:54:39;11.63;66.01
80412;SHT30;69749;42.684;23.360;2024-02-26T05:57:05;11.72;67.03
80412;SHT30;69749;42.684;23.360;2024-02-26T05:59:30;11.69;66.20
80412;SHT30;69749;42.684;23.360;2024-02-26T06:01:56;11.69;66.08
80412;SHT30;69749;42.684;23.360;2024-02-26T06:04:21;11.78;65.83
80412;SHT30;69749;42.684;23.360;2024-02-26T06:06:47;11.72;66.56
80412;SHT30;69749;42.684;23.360;2024-02-26T06:09:12;11.72;66.38
80412;SHT30;69749;42.684;23.360;2024-02-26T06:11:38;11.73;66.43
80412;SHT30;69749;42.684;23.360;2024-02-26T06:14:04;11.73;66.42
80412;SHT30;69749;42.684;23.360;2024-02-26T06:16:30;11.82;66.48
80412;SHT30;69749;42.684;23.360;2024-02-26T06:18:55;11.78;65.68
80412;SHT30;69749;42.684;23.360;2024-02-26T06:21:21;11.83;65.96
80412;SHT30;69749;42.684;23.360;2024-02-26T06:23:47;11.92;66.39
80412;SHT30;69749;42.684;23.360;2024-02-26T06:26:13;11.90;66.06
80412;SHT30;69749;42.684;23.360;2024-02-26T06:28:38;11.96;66.22
80412;SHT30;69749;42.684;23.360;2024-02-26T06:31:05;11.96;65.95
80412;SHT30;69749;42.684;23.360;2024-02-26T06:33:31;12.00;65.89
80412;SHT30;69749;42.684;23.360;2024-02-26T06:35:57;12.02;66.34
80412;SHT30;69749;42.684;23.360;2024-02-26T06:38:22;12.07;65.91
80412;SHT30;69749;42.684;23.360;2024-02-26T06:40:48;12.12;65.86
80412;SHT30;69749;42.684;23.360;2024-02-26T06:43:14;12.09;65.64
80412;SHT30;69749;42.684;23.360;2024-02-26T06:45:39;12.06;65.50
80412;SHT30;69749;42.684;23.360;2024-02-26T06:48:05;12.10;65.51
80412;SHT30;69749;42.684;23.360;2024-02-26T06:50:30;12.09;65.15
80412;SHT30;69749;42.684;23.360;2024-02-26T06:52:56;12.13;65.24
80412;SHT30;69749;42.684;23.360;2024-02-26T06:55:21;12.14;65.00
80412;SHT30;69749;42.684;23.360;2024-02-26T06:57:47;12.12;65.17
80412;SHT30;69749;42.684;23.360;2024-02-26T07:00:13;12.16;65.21
80412;SHT30;69749;42.684;23.360;2024-02-26T07:02:40;12.14;65.38
80412;SHT30;69749;42.684;23.360;2024-02-26T07:05:06;12.14;65.05
80412;SHT30;69749;42.684;23.360;2024-02-26T07:07:32;12.17;64.77
80412;SHT30;69749;42.684;23.360;2024-02-26T07:09:57;12.16;64.63
80412;SHT30;69749;42.684;23.360;2024-02-26T07:12:23;12.17;65.26
80412;SHT30;69749;42.684;23.360;2024-02-26T07:14:49;12.21;64.66
80412;SHT30;69749;42.684;23.360;2024-02-26T07:17:16;12.16;64.67
80412;SHT30;69749;42.684;23.360;2024-02-26T07:19:42;12.10;64.85
80412;SHT30;69749;42.684;23.360;2024-02-26T07:22:07;12.12;65.20
80412;SHT30;69749;42.684;23.360;2024-02-26T07:24:32;12.10;65.45
80412;SHT30;69749;42.684;23.360;2024-02-26T07:26:58;12.16;65.71
80412;SHT30;69749;42.684;23.360;2024-02-26T07:29:23;12.21;65.83
80412;SHT30;69749;42.684;23.360;2024-02-26T07:31:49;12.29;65.51
80412;SHT30;69749;42.684;23.360;2024-02-26T07:34:14;12.33;65.61
80412;SHT30;69749;42.684;23.360;2024-02-26T07:36:40;12.38;65.39
80412;SHT30;69749;42.684;23.360;2024-02-26T07:39:05;12.42;65.40
80412;SHT30;69749;42.684;23.360;2024-02-26T07:41:31;12.47;65.33
80412;SHT30;69749;42.684;23.360;2024-02-26T07:43:57;12.54;65.37
80412;SHT30;69749;42.684;23.360;2024-02-26T07:46:22;12.58;65.28
80412;SHT30;69749;42.684;23.360;2024-02-26T07:48:48;12.60;64.50
80412;SHT30;69749;42.684;23.360;2024-02-26T07:51:13;12.61;64.88
80412;SHT30;69749;42.684;23.360;2024-02-26T07:53:40;12.71;65.06
80412;SHT30;69749;42.684;23.360;2024-02-26T07:56:05;12.74;64.54
80412;SHT30;69749;42.684;23.360;2024-02-26T07:58:32;12.72;64.23
80412;SHT30;69749;42.684;23.360;2024-02-26T08:00:58;12.78;64.88
80412;SHT30;69749;42.684;23.360;2024-02-26T08:03:24;12.88;64.68
80412;SHT30;69749;42.684;23.360;2024-02-26T08:05:51;12.89;64.57
80412;SHT30;69749;42.684;23.360;2024-02-26T08:08:16;12.95;64.44
80412;SHT30;69749;42.684;23.360;2024-02-26T08:10:42;13.02;63.68
80412;SHT30;69749;42.684;23.360;2024-02-26T08:13:07;13.06;63.27
80412;SHT30;69749;42.684;23.360;2024-02-26T08:15:34;13.03;63.44
80412;SHT30;69749;42.684;23.360;2024-02-26T08:18:00;13.05;63.43
80412;SHT30;69749;42.684;23.360;2024-02-26T08:20:28;13.10;63.65
80412;SHT30;69749;42.684;23.360;2024-02-26T08:22:54;13.16;63.66
80412;SHT30;69749;42.684;23.360;2024-02-26T08:25:20;13.29;63.66
80412;SHT30;69749;42.684;23.360;2024-02-26T08:27:45;13.40;63.44
80412;SHT30;69749;42.684;23.360;2024-02-26T08:30:13;13.39;62.87
80412;SHT30;69749;42.684;23.360;2024-02-26T08:32:41;13.37;62.50
80412;SHT30;69749;42.684;23.360;2024-02-26T08:35:07;13.24;63.16
80412;SHT30;69749;42.684;23.360;2024-02-26T08:37:33;13.33;63.19
80412;SHT30;69749;42.684;23.360;2024-02-26T08:39:58;13.36;63.01
80412;SHT30;69749;42.684;23.360;2024-02-26T08:42:24;13.40;63.18
80412;SHT30;69749;42.684;23.360;2024-02-26T08:44:49;13.39;63.81
80412;SHT30;69749;42.684;23.360;2024-02-26T08:47:15;13.53;64.34
80412;SHT30;69749;42.684;23.360;2024-02-26T08:49:47;13.66;63.68
80412;SHT30;69749;42.684;23.360;2024-02-26T08:52:12;13.79;63.85
80412;SHT30;69749;42.684;23.360;2024-02-26T08:54:39;13.98;63.75
80412;SHT30;69749;42.684;23.360;2024-02-26T08:57:05;14.07;63.04
80412;SHT30;69749;42.684;23.360;2024-02-26T08:59:31;14.14;61.90
80412;SHT30;69749;42.684;23.360;2024-02-26T09:01:57;14.18;61.86
80412;SHT30;69749;42.684;23.360;2024-02-26T09:04:22;14.26;60.87
80412;SHT30;69749;42.684;23.360;2024-02-26T09:06:48;14.28;60.66
80412;SHT30;69749;42.684;23.360;2024-02-26T09:09:14;14.33;61.20
80412;SHT30;69749;42.684;23.360;2024-02-26T09:11:39;14.35;58.81
80412;SHT30;69749;42.684;23.360;2024-02-26T09:14:05;14.36;59.40
80412;SHT30;69749;42.684;23.360;2024-02-26T09:16:30;14.47;60.34
80412;SHT30;69749;42.684;23.360;2024-02-26T09:18:56;14.56;59.62
80412;SHT30;69749;42.684;23.360;2024-02-26T09:21:22;14.60;58.89
80412;SHT30;69749;42.684;23.360;2024-02-26T09:23:50;14.69;58.48
80412;SHT30;69749;42.684;23.360;2024-02-26T09:26:16;14.74;57.88
80412;SHT30;69749;42.684;23.360;2024-02-26T09:28:42;14.60;57.70
80412;SHT30;69749;42.684;23.360;2024-02-26T09:31:07;14.63;57.32
80412;SHT30;69749;42.684;23.360;2024-02-26T09:33:33;14.69;57.43
80412;SHT30;69749;42.684;23.360;2024-02-26T09:35:59;14.77;57.04
80412;SHT30;69749;42.684;23.360;2024-02-26T09:38:26;14.83;58.20
80412;SHT30;69749;42.684;23.360;2024-02-26T09:40:52;14.83;57.38
80412;SHT30;69749;42.684;23.360;2024-02-26T09:43:21;14.86;57.40
80412;SHT30;69749;42.684;23.360;2024-02-26T09:45:49;14.95;56.94
80412;SHT30;69749;42.684;23.360;2024-02-26T09:48:16;14.97;55.59
80412;SHT30;69749;42.684;23.360;2024-02-26T09:50:43;14.88;55.47
80412;SHT30;69749;42.684;23.360;2024-02-26T09:53:10;14.98;55.86
80412;SHT30;69749;42.684;23.360;2024-02-26T09:55:36;14.94;55.47
80412;SHT30;69749;42.684;23.360;2024-02-26T09:58:04;15.08;55.04
80412;SHT30;69749;42.684;23.360;2024-02-26T10:00:31;15.05;54.55
80412;SHT30;69749;42.684;23.360;2024-02-26T10:03:04;15.00;55.12
80412;SHT30;69749;42.684;23.360;2024-02-26T10:05:31;15.08;54.84
80412;SHT30;69749;42.684;23.360;2024-02-26T10:07:57;15.07;54.12
80412;SHT30;69749;42.684;23.360;2024-02-26T10:10:23;15.07;54.76
80412;SHT30;69749;42.684;23.360;2024-02-26T10:12:49;14.97;53.74
80412;SHT30;69749;42.684;23.360;2024-02-26T10:15:15;15.04;52.67
80412;SHT30;69749;42.684;23.360;2024-02-26T10:17:41;15.04;53.38
80412;SHT30;69749;42.684;23.360;2024-02-26T10:20:14;15.17;53.25
80412;SHT30;69749;42.684;23.360;2024-02-26T10:22:41;15.28;53.57
80412;SHT30;69749;42.684;23.360;2024-02-26T10:25:07;15.41;53.30
80412;SHT30;69749;42.684;23.360;2024-02-26T10:27:34;15.44;52.40
80412;SHT30;69749;42.684;23.360;2024-02-26T10:30:03;15.49;52.94
80412;SHT30;69749;42.684;23.360;2024-02-26T10:32:30;15.45;51.98
80412;SHT30;69749;42.684;23.360;2024-02-26T10:34:56;15.36;52.20
80412;SHT30;69749;42.684;23.360;2024-02-26T10:37:22;15.41;52.79
80412;SHT30;69749;42.684;23.360;2024-02-26T10:39:48;15.44;51.66
80412;SHT30;69749;42.684;23.360;2024-02-26T10:42:14;15.45;52.11
80412;SHT30;69749;42.684;23.360;2024-02-26T10:44:40;15.48;52.15
80412;SHT30;69749;42.684;23.360;2024-02-26T10:47:07;15.45;51.47
80412;SHT30;69749;42.684;23.360;2024-02-26T10:49:35;15.42;52.25
80412;SHT30;69749;42.684;23.360;2024-02-26T10:52:01;15.44;52.31
80412;SHT30;69749;42.684;23.360;2024-02-26T10:54:29;15.49;51.73
80412;SHT30;69749;42.684;23.360;2024-02-26T10:56:56;15.52;51.82
80412;SHT30;69749;42.684;23.360;2024-02-26T10:59:23;15.49;51.80
80412;SHT30;69749;42.684;23.360;2024-02-26T11:01:49;15.53;51.82
80412;SHT30;69749;42.684;23.360;2024-02-26T11:04:16;15.48;52.14
80412;SHT30;69749;42.684;23.360;2024-02-26T11:06:43;15.59;51.43
80412;SHT30;69749;42.684;23.360;2024-02-26T11:09:12;15.56;51.02
80412;SHT30;69749;42.684;23.360;2024-02-26T11:11:38;15.59;50.98
80412;SHT30;69749;42.684;23.360;2024-02-26T11:14:06;15.66;50.56
80412;SHT30;69749;42.684;23.360;2024-02-26T11:16:34;15.72;50.29
80412;SHT30;69749;42.684;23.360;2024-02-26T11:19:02;15.72;50.61
80412;SHT30;69749;42.684;23.360;2024-02-26T11:21:27;15.81;50.76
80412;SHT30;69749;42.684;23.360;2024-02-26T11:24:06;15.83;49.88
80412;SHT30;69749;42.684;23.360;2024-02-26T11:26:35;15.72;49.62
80412;SHT30;69749;42.684;23.360;2024-02-26T11:29:02;15.70;49.40
80412;SHT30;69749;42.684;23.360;2024-02-26T11:31:28;15.70;50.14
80412;SHT30;69749;42.684;23.360;2024-02-26T11:33:55;15.70;49.88
80412;SHT30;69749;42.684;23.360;2024-02-26T11:36:23;15.72;49.78
80412;SHT30;69749;42.684;23.360;2024-02-26T11:38:49;15.72;50.39
80412;SHT30;69749;42.684;23.360;2024-02-26T11:41:17;15.75;50.26
80412;SHT30;69749;42.684;23.360;2024-02-26T11:44:00;15.92;50.05
80412;SHT30;69749;42.684;23.360;2024-02-26T11:46:31;15.92;49.82
80412;SHT30;69749;42.684;23.360;2024-02-26T11:51:51;15.83;49.21
80412;SHT30;69749;42.684;23.360;2024-02-26T11:54:43;15.86;49.78
80412;SHT30;69749;42.684;23.360;2024-02-26T11:57:27;15.93;50.26
80412;SHT30;69749;42.684;23.360;2024-02-26T11:59:54;15.97;49.54
80412;SHT30;69749;42.684;23.360;2024-02-26T12:05:17;15.99;48.49
80412;SHT30;69749;42.684;23.360;2024-02-26T12:07:46;15.99;49.39
80412;SHT30;69749;42.684;23.360;2024-02-26T12:10:22;15.99;48.74
80412;SHT30;69749;42.684;23.360;2024-02-26T12:13:07;15.94;48.32
80412;SHT30;69749;42.684;23.360;2024-02-26T12:15:39;15.87;48.55
80412;SHT30;69749;42.684;23.360;2024-02-26T12:18:06;15.83;48.68
80412;SHT30;69749;42.684;23.360;2024-02-26T12:20:33;15.87;48.12
80412;SHT30;69749;42.684;23.360;2024-02-26T12:22:59;15.85;47.88
80412;SHT30;69749;42.684;23.360;2024-02-26T12:25:26;15.90;47.57
80412;SHT30;69749;42.684;23.360;2024-02-26T12:27:53;15.99;46.57
80412;SHT30;69749;42.684;23.360;2024-02-26T12:30:18;15.99;47.07
80412;SHT30;69749;42.684;23.360;2024-02-26T12:32:45;16.09;46.75
80412;SHT30;69749;42.684;23.360;2024-02-26T12:35:11;16.04;46.41
80412;SHT30;69749;42.684;23.360;2024-02-26T12:37:38;16.10;45.92
80412;SHT30;69749;42.684;23.360;2024-02-26T12:40:08;16.13;45.26
80412;SHT30;69749;42.684;23.360;2024-02-26T12:42:34;16.14;45.18
80412;SHT30;69749;42.684;23.360;2024-02-26T12:45:12;16.09;44.99
80412;SHT30;69749;42.684;23.360;2024-02-26T12:50:07;16.07;44.80
80412;SHT30;69749;42.684;23.360;2024-02-26T12:52:34;16.10;44.08
80412;SHT30;69749;42.684;23.360;2024-02-26T12:55:01;16.21;44.02
80412;SHT30;69749;42.684;23.360;2024-02-26T12:57:31;16.28;43.64
80412;SHT30;69749;42.684;23.360;2024-02-26T12:59:59;16.27;43.75
80412;SHT30;69749;42.684;23.360;2024-02-26T13:02:25;16.30;43.92
80412;SHT30;69749;42.684;23.360;2024-02-26T13:04:52;16.24;44.43
80412;SHT30;69749;42.684;23.360;2024-02-26T13:07:18;16.31;44.83
80412;SHT30;69749;42.684;23.360;2024-02-26T13:09:44;16.40;44.25
80412;SHT30;69749;42.684;23.360;2024-02-26T13:12:09;16.41;43.91
80412;SHT30;69749;42.684;23.360;2024-02-26T13:14:35;16.41;44.32
80412;SHT30;69749;42.684;23.360;2024-02-26T13:17:02;16.41;44.00
80412;SHT30;69749;42.684;23.360;2024-02-26T13:19:28;16.41;43.89
80412;SHT30;69749;42.684;23.360;2024-02-26T13:21:54;16.45;43.98
80412;SHT30;69749;42.684;23.360;2024-02-26T13:24:20;16.44;43.47
80412;SHT30;69749;42.684;23.360;2024-02-26T13:26:56;16.45;43.96
80412;SHT30;69749;42.684;23.360;2024-02-26T13:29:22;16.45;44.27
80412;SHT30;69749;42.684;23.360;2024-02-26T13:31:47;16.45;44.29
80412;SHT30;69749;42.684;23.360;2024-02-26T13:34:28;16.51;44.16
80412;SHT30;69749;42.684;23.360;2024-02-26T13:36:56;16.54;43.69
80412;SHT30;69749;42.684;23.360;2024-02-26T13:39:23;16.54;43.85
80412;SHT30;69749;42.684;23.360;2024-02-26T13:41:49;16.55;43.84
80412;SHT30;69749;42.684;23.360;2024-02-26T13:44:14;16.55;43.85
80412;SHT30;69749;42.684;23.360;2024-02-26T13:46:40;16.58;43.70
80412;SHT30;69749;42.684;23.360;2024-02-26T13:49:08;16.67;43.66
80412;SHT30;69749;42.684;23.360;2024-02-26T13:51:34;16.67;43.55
80412;SHT30;69749;42.684;23.360;2024-02-26T13:54:01;16.64;43.08
80412;SHT30;69749;42.684;23.360;2024-02-26T13:56:26;16.69;43.19
80412;SHT30;69749;42.684;23.360;2024-02-26T13:58:52;16.75;43.40
80412;SHT30;69749;42.684;23.360;2024-02-26T14:01:18;16.75;42.68
80412;SHT30;69749;42.684;23.360;2024-02-26T14:03:43;16.73;43.09
80412;SHT30;69749;42.684;23.360;2024-02-26T14:06:09;16.78;43.17
80412;SHT30;69749;42.684;23.360;2024-02-26T14:08:34;16.78;42.65
80412;SHT30;69749;42.684;23.360;2024-02-26T14:11:00;16.76;42.74
80412;SHT30;69749;42.684;23.360;2024-02-26T14:13:25;16.76;42.61
80412;SHT30;69749;42.684;23.360;2024-02-26T14:15:51;16.73;42.42
80412;SHT30;69749;42.684;23.360;2024-02-26T14:18:16;16.69;42.17
80412;SHT30;69749;42.684;23.360;2024-02-26T14:20:42;16.71;42.11
80412;SHT30;69749;42.684;23.360;2024-02-26T14:23:09;16.75;42.19
80412;SHT30;69749;42.684;23.360;2024-02-26T14:25:35;16.75;41.98
80412;SHT30;69749;42.684;23.360;2024-02-26T14:28:02;16.71;40.73
80412;SHT30;69749;42.684;23.360;2024-02-26T14:30:28;16.71;40.17
80412;SHT30;69749;42.684;23.360;2024-02-26T14:32:53;16.71;39.96
80412;SHT30;69749;42.684;23.360;2024-02-26T14:35:22;16.71;40.68
80412;SHT30;69749;42.684;23.360;2024-02-26T14:37:48;16.72;40.63
80412;SHT30;69749;42.684;23.360;2024-02-26T14:40:15;16.67;40.96
80412;SHT30;69749;42.684;23.360;2024-02-26T14:42:41;16.71;41.14
80412;SHT30;69749;42.684;23.360;2024-02-26T14:45:07;16.71;40.68
80412;SHT30;69749;42.684;23.360;2024-02-26T14:47:37;16.69;40.49
80412;SHT30;69749;42.684;23.360;2024-02-26T14:50:04;16.68;40.67
80412;SHT30;69749;42.684;23.360;2024-02-26T14:52:29;16.65;40.99
80412;SHT30;69749;42.684;23.360;2024-02-26T14:54:55;16.72;40.79
80412;SHT30;69749;42.684;23.360;2024-02-26T14:57:24;16.61;40.02
80412;SHT30;69749;42.684;23.360;2024-02-26T14:59:50;16.67;40.22
80412;SHT30;69749;42.684;23.360;2024-02-26T15:02:16;16.64;39.88
80412;SHT30;69749;42.684;23.360;2024-02-26T15:04:43;16.57;39.98
80412;SHT30;69749;42.684;23.360;2024-02-26T15:07:09;16.52;39.81
80412;SHT30;69749;42.684;23.360;2024-02-26T15:09:37;16.51;40.04
80412;SHT30;69749;42.684;23.360;2024-02-26T15:12:06;16.58;41.47
80412;SHT30;69749;42.684;23.360;2024-02-26T15:14:35;16.51;40.07
80412;SHT30;69749;42.684;23.360;2024-02-26T15:17:03;16.50;39.92
80412;SHT30;69749;42.684;23.360;2024-02-26T15:19:28;16.47;39.87